createdAt,value
2024-04-03T00:01:20.139Z,54.64
2024-04-03T00:03:46.712Z,55.03
2024-04-03T00:06:13.378Z,55.40
2024-04-03T00:08:40.112Z,55.39
2024-04-03T00:11:06.712Z,56.12
2024-04-03T00:13:33.403Z,55.78
2024-04-03T00:16:00.419Z,55.38
2024-04-03T00:18:27.696Z,56.18
2024-04-03T00:21:04.947Z,56.37
2024-04-03T00:23:32.568Z,56.63
2024-04-03T00:26:01.260Z,56.34
2024-04-03T00:28:31.304Z,56.26
2024-04-03T00:31:02.549Z,56.06
2024-04-03T00:33:29.254Z,56.19
2024-04-03T00:36:00.410Z,56.52
2024-04-03T00:38:28.248Z,56.70
2024-04-03T00:40:55.476Z,56.21
2024-04-03T00:43:22.178Z,55.85
2024-04-03T00:45:49.962Z,55.43
2024-04-03T00:48:16.653Z,55.42
2024-04-03T00:50:45.043Z,55.76
2024-04-03T00:53:12.170Z,55.90
2024-04-03T00:55:40.604Z,55.91
2024-04-03T00:58:07.282Z,56.11
2024-04-03T01:00:36.297Z,55.97
2024-04-03T01:03:07.122Z,55.47
2024-04-03T01:05:34.521Z,54.93
2024-04-03T01:08:02.393Z,54.52
2024-04-03T01:10:29.414Z,54.38
2024-04-03T01:12:58.683Z,54.39
2024-04-03T01:15:25.251Z,54.36
2024-04-03T01:17:51.819Z,54.33
2024-04-03T01:20:18.481Z,54.11
2024-04-03T01:22:45.076Z,54.08
2024-04-03T01:25:11.686Z,54.09
2024-04-03T01:27:38.241Z,54.07
2024-04-03T01:30:05.290Z,54.01
2024-04-03T01:32:33.833Z,53.89
2024-04-03T01:35:00.455Z,53.77
2024-04-03T01:37:27.148Z,53.64
2024-04-03T01:39:53.712Z,53.77
2024-04-03T01:42:21.548Z,53.90
2024-04-03T01:44:49.528Z,53.94
2024-04-03T01:47:16.217Z,54.09
2024-04-03T01:49:42.942Z,54.38
2024-04-03T01:52:09.642Z,54.28
2024-04-03T01:54:36.206Z,54.14
2024-04-03T01:57:02.797Z,54.15
2024-04-03T01:59:29.460Z,54.08
2024-04-03T02:01:56.147Z,54.34
2024-04-03T02:04:22.904Z,54.25
2024-04-03T02:06:49.498Z,54.17
2024-04-03T02:09:16.075Z,54.28
2024-04-03T02:11:42.687Z,54.41
2024-04-03T02:14:13.218Z,54.56
2024-04-03T02:16:47.401Z,54.69
2024-04-03T02:19:14.313Z,54.78
2024-04-03T02:21:41.236Z,54.73
2024-04-03T02:24:16.037Z,54.94
2024-04-03T02:26:47.317Z,55.27
2024-04-03T02:29:16.699Z,55.28
2024-04-03T02:31:43.223Z,55.43
2024-04-03T02:34:11.690Z,55.30
2024-04-03T02:36:38.410Z,55.33
2024-04-03T02:39:04.985Z,55.25
2024-04-03T02:41:31.532Z,55.21
2024-04-03T02:43:58.088Z,55.25
2024-04-03T02:46:24.691Z,55.58
2024-04-03T02:48:51.359Z,55.67
2024-04-03T02:51:17.884Z,55.93
2024-04-03T02:53:44.467Z,55.86
2024-04-03T02:56:11.430Z,55.74
2024-04-03T02:58:38.061Z,55.58
2024-04-03T03:01:07.638Z,55.71
2024-04-03T03:03:35.070Z,56.05
2024-04-03T03:06:03.514Z,56.29
2024-04-03T03:08:32.093Z,56.29
2024-04-03T03:11:00.213Z,56.47
2024-04-03T03:13:28.205Z,56.26
2024-04-03T03:15:59.236Z,57.03
2024-04-03T03:18:29.222Z,57.94
2024-04-03T03:20:56.262Z,58.20
2024-04-03T03:23:22.988Z,58.41
2024-04-03T03:25:52.919Z,58.75
2024-04-03T03:28:20.861Z,58.65
2024-04-03T03:30:51.360Z,58.98
2024-04-03T03:33:18.513Z,59.45
2024-04-03T03:35:58.380Z,59.69
2024-04-03T03:38:25.244Z,59.68
2024-04-03T03:40:55.401Z,60.02
2024-04-03T03:43:22.441Z,60.11
2024-04-03T03:45:50.788Z,60.67
2024-04-03T03:48:18.239Z,61.30
2024-04-03T03:51:03.799Z,61.75
2024-04-03T03:53:33.202Z,62.24
2024-04-03T03:56:09.923Z,62.27
2024-04-03T03:58:39.480Z,62.29
2024-04-03T04:01:06.289Z,61.74
2024-04-03T04:03:32.911Z,61.61
2024-04-03T04:06:00.319Z,61.67
2024-04-03T04:08:26.905Z,61.36
2024-04-03T04:10:55.211Z,60.76
2024-04-03T04:13:22.112Z,61.14
2024-04-03T04:15:48.735Z,61.60
2024-04-03T04:18:18.292Z,61.91
2024-04-03T04:20:53.893Z,62.03
2024-04-03T04:23:20.439Z,62.07
2024-04-03T04:25:57.370Z,62.22
2024-04-03T04:28:24.910Z,62.28
2024-04-03T04:31:02.432Z,62.57
2024-04-03T04:33:30.151Z,62.68
2024-04-03T04:35:58.533Z,62.59
2024-04-03T04:38:26.100Z,62.54
2024-04-03T04:41:04.639Z,62.47
2024-04-03T04:43:33.145Z,62.49
2024-04-03T04:46:02.145Z,62.65
2024-04-03T04:48:31.076Z,62.69
2024-04-03T04:51:00.670Z,62.55
2024-04-03T04:53:27.327Z,62.63
2024-04-03T04:56:07.042Z,62.80
2024-04-03T04:58:33.737Z,62.66
2024-04-03T05:01:02.596Z,62.63
2024-04-03T05:03:29.621Z,62.58
2024-04-03T05:05:56.990Z,62.49
2024-04-03T05:08:24.067Z,62.74
2024-04-03T05:10:58.635Z,62.95
2024-04-03T05:13:28.052Z,62.81
2024-04-03T05:15:54.846Z,62.81
2024-04-03T05:18:21.605Z,62.71
2024-04-03T05:20:48.390Z,62.65
2024-04-03T05:23:16.453Z,62.58
2024-04-03T05:25:43.608Z,62.79
2024-04-03T05:28:10.261Z,62.22
2024-04-03T05:30:37.556Z,62.16
2024-04-03T05:33:05.960Z,62.15
2024-04-03T05:35:32.507Z,62.23
2024-04-03T05:37:59.166Z,62.27
2024-04-03T05:40:26.146Z,62.25
2024-04-03T05:42:56.617Z,63.11
2024-04-03T05:45:23.616Z,62.74
2024-04-03T05:47:50.587Z,63.66
2024-04-03T05:50:17.236Z,63.54
2024-04-03T05:52:43.754Z,63.60
2024-04-03T05:55:10.450Z,63.67
2024-04-03T05:57:37.022Z,63.74
2024-04-03T06:00:06.590Z,63.51
2024-04-03T06:02:39.006Z,63.52
2024-04-03T06:05:05.596Z,63.91
2024-04-03T06:07:32.201Z,63.73
2024-04-03T06:09:58.783Z,63.61
2024-04-03T06:12:25.343Z,64.06
2024-04-03T06:14:51.953Z,64.13
2024-04-03T06:17:18.675Z,64.00
2024-04-03T06:19:46.474Z,64.00
2024-04-03T06:22:13.026Z,64.14
2024-04-03T06:24:39.622Z,64.35
2024-04-03T06:27:06.264Z,64.24
2024-04-03T06:29:32.761Z,64.24
2024-04-03T06:31:59.929Z,64.50
2024-04-03T06:34:26.536Z,64.50
2024-04-03T06:36:53.158Z,64.38
2024-04-03T06:39:20.406Z,64.17
2024-04-03T06:41:47.090Z,62.90
2024-04-03T06:44:13.622Z,62.45
2024-04-03T06:46:40.244Z,62.05
2024-04-03T06:49:11.077Z,62.15
2024-04-03T06:51:37.811Z,62.60
2024-04-03T06:54:04.790Z,62.44
2024-04-03T06:56:34.237Z,61.92
2024-04-03T06:59:00.894Z,62.16
2024-04-03T07:01:27.509Z,62.32
2024-04-03T07:03:54.121Z,62.46
2024-04-03T07:06:20.772Z,62.31
2024-04-03T07:08:47.427Z,62.62
2024-04-03T07:11:16.126Z,63.59
2024-04-03T07:13:42.711Z,65.21
2024-04-03T07:16:09.354Z,65.05
2024-04-03T07:18:39.215Z,64.40
2024-04-03T07:21:06.107Z,64.54
2024-04-03T07:23:32.798Z,64.37
2024-04-03T07:25:59.746Z,64.91
2024-04-03T07:28:30.373Z,64.81
2024-04-03T07:30:59.556Z,65.01
2024-04-03T07:33:26.126Z,64.93
2024-04-03T07:35:52.667Z,65.06
2024-04-03T07:38:21.465Z,65.90
2024-04-03T07:40:55.347Z,66.30
2024-04-03T07:43:21.963Z,66.48
2024-04-03T07:45:48.779Z,66.50
2024-04-03T07:48:15.424Z,66.62
2024-04-03T07:50:42.334Z,66.27
2024-04-03T07:53:08.949Z,65.48
2024-04-03T07:55:40.394Z,65.06
2024-04-03T07:58:07.039Z,64.74
2024-04-03T08:00:33.942Z,64.42
2024-04-03T08:03:01.163Z,64.07
2024-04-03T08:05:28.746Z,66.14
2024-04-03T08:07:55.337Z,65.58
2024-04-03T08:10:21.854Z,65.92
2024-04-03T08:12:48.414Z,65.96
2024-04-03T08:15:15.636Z,65.43
2024-04-03T08:17:42.255Z,66.07
2024-04-03T08:20:11.704Z,66.14
2024-04-03T08:22:39.166Z,66.03
2024-04-03T08:25:05.871Z,65.99
2024-04-03T08:27:33.983Z,66.87
2024-04-03T08:30:02.510Z,66.32
2024-04-03T08:32:31.404Z,66.30
2024-04-03T08:35:01.832Z,67.74
2024-04-03T08:37:28.582Z,68.34
2024-04-03T08:39:55.143Z,68.43
2024-04-03T08:42:21.846Z,68.62
2024-04-03T08:44:48.983Z,69.14
2024-04-03T08:47:16.818Z,69.52
2024-04-03T08:49:43.503Z,69.06
2024-04-03T08:52:12.013Z,68.60
2024-04-03T08:54:43.363Z,69.08
2024-04-03T08:57:10.796Z,69.38
2024-04-03T08:59:39.653Z,69.17
2024-04-03T09:02:07.324Z,67.98
2024-04-03T09:04:35.130Z,67.11
2024-04-03T09:07:03.437Z,66.73
2024-04-03T09:09:32.602Z,66.56
2024-04-03T09:12:04.903Z,66.30
2024-04-03T09:14:32.013Z,65.37
2024-04-03T09:17:03.469Z,64.62
2024-04-03T09:19:31.496Z,64.17
2024-04-03T09:22:04.792Z,63.51
2024-04-03T09:24:34.678Z,62.64
2024-04-03T09:27:05.167Z,65.20
2024-04-03T09:29:31.782Z,66.55
2024-04-03T09:32:06.381Z,66.61
2024-04-03T09:34:33.636Z,66.95
2024-04-03T09:37:03.102Z,66.34
2024-04-03T09:39:29.729Z,66.20
2024-04-03T09:42:07.148Z,65.14
2024-04-03T09:44:38.268Z,65.06
2024-04-03T09:47:14.664Z,63.99
2024-04-03T09:49:52.596Z,63.74
2024-04-03T09:52:20.406Z,63.43
2024-04-03T09:54:50.496Z,62.15
2024-04-03T09:57:18.114Z,61.82
2024-04-03T09:59:50.471Z,61.53
2024-04-03T10:02:18.032Z,61.53
2024-04-03T10:04:44.583Z,60.43
2024-04-03T10:07:21.397Z,59.85
2024-04-03T10:09:52.304Z,58.18
2024-04-03T10:12:22.320Z,57.82
2024-04-03T10:14:58.337Z,58.29
2024-04-03T10:17:25.473Z,59.26
2024-04-03T10:20:00.340Z,58.06
2024-04-03T10:22:30.335Z,58.02
2024-04-03T10:24:57.112Z,58.24
2024-04-03T10:27:24.363Z,58.18
2024-04-03T10:30:08.225Z,57.27
2024-04-03T10:32:34.704Z,56.03
2024-04-03T10:35:01.307Z,56.35
2024-04-03T10:37:27.898Z,56.54
2024-04-03T10:39:54.606Z,55.25
2024-04-03T10:42:21.742Z,55.52
2024-04-03T10:44:48.510Z,54.70
2024-04-03T10:47:17.435Z,54.51
2024-04-03T10:49:44.029Z,54.34
2024-04-03T10:52:11.247Z,55.11
2024-04-03T10:54:38.207Z,55.56
2024-04-03T10:57:06.225Z,56.40
2024-04-03T10:59:32.807Z,56.63
2024-04-03T11:01:59.331Z,55.29
2024-04-03T11:04:28.767Z,55.57
2024-04-03T11:06:58.585Z,55.20
2024-04-03T11:09:27.515Z,54.77
2024-04-03T11:11:54.320Z,54.48
2024-04-03T11:14:25.187Z,55.11
2024-04-03T11:16:53.263Z,54.98
2024-04-03T11:19:19.961Z,55.54
2024-04-03T11:21:46.669Z,55.60
2024-04-03T11:24:13.406Z,55.86
2024-04-03T11:26:43.207Z,55.28
2024-04-03T11:29:31.626Z,54.42
2024-04-03T11:31:59.446Z,53.70
2024-04-03T11:34:28.784Z,53.10
2024-04-03T11:36:57.242Z,52.46
2024-04-03T11:39:24.526Z,51.67
2024-04-03T11:41:51.166Z,51.27
2024-04-03T11:44:17.715Z,51.72
2024-04-03T11:46:44.397Z,50.71
2024-04-03T11:49:11.068Z,49.59
2024-04-03T11:51:37.694Z,49.13
2024-04-03T11:54:05.044Z,47.94
2024-04-03T11:56:33.012Z,45.65
2024-04-03T11:58:59.696Z,45.46
2024-04-03T12:01:26.689Z,47.32
2024-04-03T12:03:53.298Z,48.05
2024-04-03T12:06:19.907Z,48.34
2024-04-03T12:08:54.101Z,46.58
2024-04-03T12:11:20.890Z,44.85
2024-04-03T12:13:47.574Z,44.30
2024-04-03T12:16:16.308Z,44.31
2024-04-03T12:19:03.073Z,44.16
2024-04-03T12:21:29.832Z,43.51
2024-04-03T12:23:56.486Z,44.73
2024-04-03T12:26:24.635Z,44.06
2024-04-03T12:28:51.686Z,44.21
2024-04-03T12:31:18.260Z,43.72
2024-04-03T12:33:44.840Z,45.14
2024-04-03T12:36:11.468Z,45.91
2024-04-03T12:38:41.661Z,45.25
2024-04-03T12:41:09.652Z,44.55
2024-04-03T12:43:36.255Z,44.39
2024-04-03T12:46:03.858Z,44.65
2024-04-03T12:48:30.578Z,44.93
2024-04-03T12:50:58.614Z,44.37
2024-04-03T12:53:25.620Z,44.73
2024-04-03T12:55:52.220Z,44.47
2024-04-03T12:58:18.990Z,44.54
2024-04-03T13:00:45.930Z,43.81
2024-04-03T13:03:12.797Z,43.98
2024-04-03T13:05:40.267Z,43.69
2024-04-03T13:08:07.008Z,42.46
2024-04-03T13:10:33.632Z,43.91
2024-04-03T13:13:00.568Z,44.50
2024-04-03T13:15:27.492Z,43.27
2024-04-03T13:17:54.246Z,42.82
2024-04-03T13:20:21.587Z,43.31
2024-04-03T13:22:48.878Z,42.82
2024-04-03T13:25:15.749Z,43.69
2024-04-03T13:27:42.345Z,42.93
2024-04-03T13:30:09.784Z,43.36
2024-04-03T13:32:36.415Z,44.16
2024-04-03T13:35:02.998Z,44.20
2024-04-03T13:37:29.621Z,43.49
2024-04-03T13:39:56.240Z,43.62
2024-04-03T13:42:23.785Z,44.16
2024-04-03T13:44:50.358Z,44.68
2024-04-03T13:47:16.918Z,45.06
2024-04-03T13:49:43.475Z,44.05
2024-04-03T13:52:10.083Z,45.13
2024-04-03T13:54:36.687Z,45.68
2024-04-03T13:57:03.401Z,45.52
2024-04-03T13:59:31.952Z,45.11
2024-04-03T14:01:59.123Z,45.90
2024-04-03T14:04:25.763Z,46.11
2024-04-03T14:06:52.398Z,46.26
2024-04-03T14:09:19.796Z,46.44
2024-04-03T14:11:46.340Z,46.50
2024-04-03T14:14:12.990Z,46.46
2024-04-03T14:16:39.933Z,46.64
2024-04-03T14:19:06.642Z,46.82
2024-04-03T14:21:33.482Z,46.43
2024-04-03T14:24:00.173Z,47.17
2024-04-03T14:26:26.882Z,47.12
2024-04-03T14:28:53.444Z,46.87
2024-04-03T14:31:19.999Z,46.88
2024-04-03T14:33:46.726Z,46.64
2024-04-03T14:36:13.600Z,47.15
2024-04-03T14:38:41.178Z,47.08
2024-04-03T14:41:09.956Z,46.00
2024-04-03T14:43:36.834Z,46.29
2024-04-03T14:46:06.579Z,46.35
2024-04-03T14:48:39.572Z,46.35
2024-04-03T14:51:09.981Z,46.51
2024-04-03T14:53:36.653Z,46.39
2024-04-03T14:56:03.583Z,46.76
2024-04-03T14:58:31.898Z,46.54
2024-04-03T15:00:58.512Z,45.82
2024-04-03T15:03:25.111Z,46.28
2024-04-03T15:05:53.093Z,46.99
2024-04-03T15:08:22.984Z,46.85
2024-04-03T15:10:52.863Z,47.23
2024-04-03T15:13:19.602Z,47.00
2024-04-03T15:15:47.458Z,47.47
2024-04-03T15:18:15.719Z,46.79
2024-04-03T15:20:46.493Z,47.07
2024-04-03T15:23:13.391Z,47.18
2024-04-03T15:25:40.285Z,48.10
2024-04-03T15:28:06.843Z,47.77
2024-04-03T15:30:33.495Z,47.87
2024-04-03T15:33:00.178Z,48.03
2024-04-03T15:35:26.784Z,48.06
2024-04-03T15:37:57.747Z,47.97
2024-04-03T15:40:24.854Z,47.19
2024-04-03T15:42:53.489Z,47.58
2024-04-03T15:45:20.274Z,47.48
2024-04-03T15:47:47.446Z,47.25
2024-04-03T15:50:14.226Z,46.82
2024-04-03T15:52:42.403Z,47.19
2024-04-03T15:55:08.933Z,47.30
2024-04-03T15:57:36.155Z,47.56
2024-04-03T16:00:06.217Z,47.96
2024-04-03T16:02:32.827Z,48.19
2024-04-03T16:04:59.451Z,47.96
2024-04-03T16:07:26.026Z,47.67
2024-04-03T16:09:52.817Z,47.82
2024-04-03T16:12:19.356Z,47.66
2024-04-03T16:14:45.879Z,47.81
2024-04-03T16:17:12.440Z,48.09
2024-04-03T16:19:39.182Z,47.79
2024-04-03T16:22:05.828Z,48.80
2024-04-03T16:24:32.482Z,49.58
2024-04-03T16:26:59.208Z,50.27
2024-04-03T16:29:25.789Z,50.34
2024-04-03T16:31:52.334Z,50.53
2024-04-03T16:34:19.575Z,51.24
2024-04-03T16:36:46.557Z,51.89
2024-04-03T16:39:13.113Z,52.36
2024-04-03T16:41:39.745Z,51.99
2024-04-03T16:44:06.335Z,51.14
2024-04-03T16:46:32.944Z,50.82
2024-04-03T16:49:00.087Z,50.87
2024-04-03T16:51:26.632Z,51.13
2024-04-03T16:53:53.261Z,51.52
2024-04-03T16:56:19.889Z,51.70
2024-04-03T16:58:46.438Z,51.93
2024-04-03T17:01:13.359Z,52.15
2024-04-03T17:03:41.994Z,52.35
2024-04-03T17:06:10.302Z,52.59
2024-04-03T17:08:39.616Z,52.83
2024-04-03T17:11:07.334Z,53.02
2024-04-03T17:13:33.874Z,52.94
2024-04-03T17:16:00.477Z,52.97
2024-04-03T17:18:27.196Z,53.19
2024-04-03T17:20:53.770Z,53.43
2024-04-03T17:23:20.372Z,53.30
2024-04-03T17:25:46.940Z,53.39
2024-04-03T17:28:13.639Z,53.81
2024-04-03T17:30:41.218Z,53.47
2024-04-03T17:33:07.789Z,53.53
2024-04-03T17:35:34.326Z,53.87
2024-04-03T17:38:03.670Z,53.93
2024-04-03T17:40:31.706Z,53.71
2024-04-03T17:42:58.548Z,53.95
2024-04-03T17:45:25.101Z,54.11
2024-04-03T17:47:51.724Z,54.45
2024-04-03T17:50:18.723Z,54.57
2024-04-03T17:52:45.348Z,54.83
2024-04-03T17:55:12.718Z,54.88
2024-04-03T17:57:40.827Z,54.93
2024-04-03T18:00:07.831Z,54.91
2024-04-03T18:02:36.986Z,55.28
2024-04-03T18:05:03.590Z,55.49
2024-04-03T18:07:30.176Z,56.03
2024-04-03T18:09:56.785Z,56.17
2024-04-03T18:12:23.364Z,56.70
2024-04-03T18:14:50.278Z,56.37
2024-04-03T18:17:17.186Z,56.24
2024-04-03T18:19:43.929Z,56.03
2024-04-03T18:22:10.547Z,56.29
2024-04-03T18:24:37.149Z,56.87
2024-04-03T18:27:04.864Z,57.31
2024-04-03T18:29:38.483Z,57.49
2024-04-03T18:32:11.714Z,59.09
2024-04-03T18:34:43.231Z,59.56
2024-04-03T18:37:09.915Z,60.39
2024-04-03T18:39:36.886Z,60.95
2024-04-03T18:42:04.079Z,60.85
2024-04-03T18:44:30.650Z,61.73
2024-04-03T18:46:57.377Z,61.78
2024-04-03T18:49:27.247Z,63.44
2024-04-03T18:51:54.332Z,63.77
2024-04-03T18:54:20.959Z,62.69
2024-04-03T18:56:47.545Z,63.80
2024-04-03T18:59:14.345Z,63.95
2024-04-03T19:01:42.652Z,63.63
2024-04-03T19:04:11.628Z,63.33
2024-04-03T19:06:38.208Z,63.78
2024-04-03T19:09:04.926Z,63.84
2024-04-03T19:11:32.555Z,64.00
2024-04-03T19:13:59.172Z,63.75
2024-04-03T19:16:26.166Z,63.68
2024-04-03T19:18:52.791Z,63.53
2024-04-03T19:21:19.460Z,63.04
2024-04-03T19:23:46.096Z,62.39
2024-04-03T19:26:12.689Z,61.06
2024-04-03T19:28:39.578Z,59.92
2024-04-03T19:31:06.544Z,59.42
2024-04-03T19:33:36.637Z,58.93
2024-04-03T19:36:06.114Z,58.81
2024-04-03T19:38:39.079Z,58.65
2024-04-03T19:41:05.703Z,58.39
2024-04-03T19:43:32.307Z,58.54
2024-04-03T19:46:00.296Z,57.83
2024-04-03T19:48:27.198Z,57.68
2024-04-03T19:50:53.913Z,57.38
2024-04-03T19:53:20.648Z,57.27
2024-04-03T19:55:47.952Z,56.96
2024-04-03T19:58:15.061Z,56.79
2024-04-03T20:00:45.157Z,56.96
2024-04-03T20:03:12.364Z,56.59
2024-04-03T20:05:39.126Z,56.53
2024-04-03T20:08:10.007Z,57.16
2024-04-03T20:10:47.261Z,57.69
2024-04-03T20:13:15.209Z,58.14
2024-04-03T20:15:42.863Z,58.47
2024-04-03T20:18:11.169Z,58.46
2024-04-03T20:20:43.186Z,58.79
2024-04-03T20:23:10.525Z,58.78
2024-04-03T20:25:38.775Z,58.85
2024-04-03T20:28:08.774Z,59.18
2024-04-03T20:30:37.073Z,59.23
2024-04-03T20:33:10.015Z,59.08
2024-04-03T20:35:47.404Z,59.33
2024-04-03T20:38:14.336Z,59.41
2024-04-03T20:40:42.660Z,59.58
2024-04-03T20:43:09.426Z,59.72
2024-04-03T20:45:36.749Z,60.01
2024-04-03T20:48:04.230Z,60.08
2024-04-03T20:50:30.813Z,60.04
2024-04-03T20:52:57.372Z,60.05
2024-04-03T20:55:26.738Z,60.14
2024-04-03T20:57:54.711Z,60.50
2024-04-03T21:00:21.494Z,60.63
2024-04-03T21:02:48.075Z,60.52
2024-04-03T21:05:15.634Z,60.59
2024-04-03T21:07:48.609Z,60.76
2024-04-03T21:10:15.196Z,60.83
2024-04-03T21:12:46.287Z,60.55
2024-04-03T21:15:13.139Z,60.69
2024-04-03T21:17:40.720Z,60.95
2024-04-03T21:20:07.584Z,61.36
2024-04-03T21:22:34.111Z,61.20
2024-04-03T21:25:01.291Z,61.23
2024-04-03T21:27:27.949Z,61.16
2024-04-03T21:29:54.701Z,61.72
2024-04-03T21:32:21.376Z,61.99
2024-04-03T21:34:47.951Z,62.07
2024-04-03T21:37:15.873Z,62.05
2024-04-03T21:39:46.305Z,62.12
2024-04-03T21:42:13.136Z,61.95
2024-04-03T21:44:39.904Z,62.05
2024-04-03T21:47:06.547Z,62.15
2024-04-03T21:49:33.207Z,62.12
2024-04-03T21:51:59.796Z,62.44
2024-04-03T21:54:26.629Z,62.41
2024-04-03T21:56:53.201Z,62.87
2024-04-03T21:59:19.854Z,63.02
2024-04-03T22:01:46.415Z,63.15
2024-04-03T22:04:13.073Z,63.38
2024-04-03T22:06:39.660Z,63.55
2024-04-03T22:09:07.598Z,63.64
2024-04-03T22:11:34.124Z,63.86
2024-04-03T22:14:00.711Z,63.68
2024-04-03T22:16:27.421Z,64.37
2024-04-03T22:18:54.048Z,64.50
2024-04-03T22:21:20.697Z,64.39
2024-04-03T22:23:47.226Z,64.94
2024-04-03T22:26:13.991Z,64.94
2024-04-03T22:28:40.561Z,64.81
2024-04-03T22:31:07.113Z,64.86
2024-04-03T22:33:34.311Z,65.11
2024-04-03T22:36:01.381Z,65.05
2024-04-03T22:38:28.005Z,65.11
2024-04-03T22:40:54.590Z,65.19
2024-04-03T22:43:21.341Z,65.18
2024-04-03T22:45:47.958Z,65.18
2024-04-03T22:48:14.540Z,65.62
2024-04-03T22:50:41.119Z,65.67
2024-04-03T22:53:07.762Z,65.67
2024-04-03T22:55:34.336Z,65.69
2024-04-03T22:58:00.996Z,65.47
2024-04-03T23:00:29.481Z,65.61
2024-04-03T23:02:56.906Z,65.81
2024-04-03T23:05:23.966Z,65.74
2024-04-03T23:07:50.560Z,65.83
2024-04-03T23:10:17.286Z,65.44
2024-04-03T23:12:44.258Z,65.34
2024-04-03T23:15:10.854Z,65.59
2024-04-03T23:17:38.347Z,65.44
2024-04-03T23:20:05.541Z,65.61
2024-04-03T23:22:32.155Z,65.77
2024-04-03T23:24:58.913Z,65.85
2024-04-03T23:27:25.572Z,65.86
2024-04-03T23:29:52.155Z,66.08
2024-04-03T23:32:22.660Z,66.19
2024-04-03T23:34:49.822Z,66.05
2024-04-03T23:37:17.952Z,66.23
2024-04-03T23:39:44.555Z,66.13
2024-04-03T23:42:11.187Z,66.20
2024-04-03T23:44:37.731Z,66.12
2024-04-03T23:47:04.812Z,66.06
2024-04-03T23:49:31.514Z,65.98
2024-04-03T23:51:58.196Z,65.92
2024-04-03T23:54:24.807Z,65.80
2024-04-03T23:56:51.428Z,65.64
2024-04-03T23:59:18.095Z,65.67
